Time;durP1;ratioP1;P1;durP2;ratioP2;P2;SDS_P1;SDS_P2;PMS_P1;PMS_P2;Temp;Humidity;BMP_temperature;BMP_pressure;BME280_temperature;BME280_humidity;BME280_pressure;Samples;Min_cycle;Max_cycle;Signal;HPM_P1;HPM_P2
2022/09/03 00:01:01;;;;;;;2.75;0.85;;;14.90;99.90;;;13.84;89.92;101734.25;5031026;28;20052;-76
2022/09/03 00:03:51;;;;;;;3.78;0.90;;;14.90;99.90;;;13.87;90.06;101728.00;5046829;28;20037;-76
2022/09/03 00:06:27;;;;;;;1.67;0.85;;;14.80;99.90;;;13.89;89.85;101731.44;5048590;28;20025;-76
2022/09/03 00:09:21;;;;;;;1.48;0.90;;;14.90;99.90;;;13.86;90.95;101734.19;5045239;28;20040;-76
2022/09/03 00:12:27;;;;;;;3.85;0.90;;;14.80;99.90;;;13.87;91.26;101722.69;5036548;28;20068;-76
2022/09/03 00:15:14;;;;;;;4.53;0.88;;;14.90;99.90;;;13.88;91.13;101725.25;5042053;28;20032;-76
2022/09/03 00:17:57;;;;;;;1.30;0.80;;;14.80;99.90;;;13.81;92.35;101726.47;5040405;28;20028;-76
2022/09/03 00:20:37;;;;;;;1.67;0.88;;;14.80;99.90;;;13.86;92.02;101727.09;5054925;28;20703;-76
2022/09/03 00:23:07;;;;;;;2.38;0.90;;;14.80;99.90;;;13.87;92.13;101730.63;5039156;28;20022;-76
2022/09/03 00:26:06;;;;;;;6.13;1.20;;;14.80;99.90;;;13.86;92.22;101728.91;5037101;28;20029;-76
2022/09/03 00:29:02;;;;;;;1.85;0.90;;;14.80;99.90;;;13.87;92.32;101730.63;5031767;28;20605;-76
2022/09/03 00:31:41;;;;;;;1.00;0.85;;;14.80;99.90;;;13.87;92.39;101725.34;5042140;28;20442;-76
2022/09/03 00:34:38;;;;;;;1.15;0.80;;;14.80;99.90;;;13.82;93.40;101724.66;5041029;28;20041;-76
2022/09/03 00:37:26;;;;;;;3.55;0.85;;;14.80;99.90;;;13.81;94.40;101728.25;5042873;22;20476;-75
2022/09/03 00:40:22;;;;;;;1.33;0.93;;;;;;;13.77;94.84;101721.38;5023839;28;20034;-76
2022/09/03 00:43:32;;;;;;;4.43;0.90;;;;;;;13.82;94.57;101717.59;5007399;28;20060;-76
2022/09/03 00:46:44;;;;;;;3.25;0.90;;;14.80;99.90;;;13.87;94.28;101725.34;5023931;28;20061;-76
2022/09/03 00:49:54;;;;;;;4.80;1.20;;;14.80;99.90;;;13.87;93.88;101717.41;5023197;28;20059;-76
2022/09/03 00:53:36;;;;;;;4.20;1.10;;;14.90;99.90;;;13.93;93.65;101717.97;5011413;28;20036;-76
2022/09/03 00:56:53;;;;;;;4.43;1.02;;;14.90;99.90;;;13.94;93.23;101717.03;4970989;28;20566;-77
2022/09/03 00:59:54;;;;;;;3.70;0.93;;;15.00;99.90;;;14.03;92.21;101726.34;5008040;28;20513;-77
2022/09/03 01:03:13;;;;;;;3.22;1.05;;;15.00;99.90;;;14.07;91.23;101722.63;5023353;28;20042;-78
2022/09/03 01:06:27;;;;;;;2.38;0.85;;;15.10;99.90;;;14.07;90.48;101721.78;5014422;28;20042;-77
2022/09/03 01:09:20;;;;;;;3.97;0.85;;;15.10;99.90;;;14.07;90.22;101727.94;5009329;28;20025;-77
2022/09/03 01:12:43;;;;;;;3.72;0.98;;;15.10;99.90;;;14.02;89.48;101732.59;5008412;28;20022;-76
2022/09/03 01:15:18;;;;;;;3.35;1.00;;;15.10;99.90;;;14.11;89.46;101728.66;5004371;28;20057;-77
2022/09/03 01:17:53;;;;;;;2.45;0.90;;;15.20;99.90;;;14.18;89.00;101729.25;5025762;28;20060;-77
2022/09/03 01:20:48;;;;;;;3.28;1.10;;;15.20;99.90;;;14.08;88.21;101731.44;5009968;28;20033;-77
2022/09/03 01:24:06;;;;;;;6.55;1.00;;;15.20;99.90;;;14.16;87.80;101735.47;5010246;28;20437;-77
2022/09/03 01:27:09;;;;;;;2.00;0.93;;;15.20;99.90;;;14.14;86.52;101729.38;5029120;23;20034;-76
2022/09/03 01:30:00;;;;;;;3.10;1.10;;;15.20;99.90;;;14.19;85.72;101730.94;5018558;28;20038;-77
2022/09/03 01:32:57;;;;;;;3.63;1.15;;;15.20;99.90;;;14.16;84.87;101731.97;5018122;28;20084;-76
2022/09/03 01:35:31;;;;;;;6.45;1.00;;;15.20;99.90;;;14.18;84.79;101734.53;5019132;28;20034;-77
2022/09/03 01:38:45;;;;;;;3.22;0.98;;;15.30;99.90;;;14.14;84.91;101725.88;4986323;28;20070;-77
2022/09/03 01:45:08;;;;;;;9.35;1.20;;;15.20;99.90;;;14.10;84.84;101733.13;5001489;28;20065;-77
2022/09/03 01:48:05;;;;;;;8.98;1.60;;;15.10;99.90;;;14.06;83.47;101739.47;4997060;28;20046;-78
2022/09/03 01:50:45;;;;;;;6.43;1.10;;;15.10;99.90;;;14.01;82.47;101732.66;4997270;28;20041;-77
2022/09/03 01:53:51;;;;;;;9.15;1.20;;;15.10;99.90;;;13.95;81.74;101729.38;4999046;28;20039;-77
2022/09/03 01:56:40;;;;;;;1.98;1.02;;;15.10;99.90;;;13.97;81.40;101737.22;4978738;28;20050;-77
2022/09/03 01:59:40;;;;;;;3.85;1.20;;;15.10;99.90;;;13.90;81.07;101727.84;4997404;28;20050;-77
2022/09/03 02:02:19;;;;;;;6.13;1.15;;;15.00;99.90;;;13.83;80.50;101729.06;4995278;28;20088;-77
2022/09/03 02:05:24;;;;;;;5.57;1.27;;;14.90;99.90;;;13.75;79.83;101722.28;4978854;28;20156;-77
2022/09/03 02:08:00;;;;;;;6.47;1.27;;;14.90;99.90;;;13.72;79.55;101735.66;4998629;28;20041;-76
2022/09/03 02:10:52;;;;;;;6.03;1.38;;;14.80;99.90;;;13.63;79.04;101738.72;4998718;28;20084;-76
2022/09/03 02:13:26;;;;;;;5.30;1.40;;;14.80;99.90;;;13.51;78.68;101734.81;4994561;28;20030;-76
2022/09/03 02:15:56;;;;;;;4.07;1.13;;;14.70;99.90;;;13.52;78.90;101720.66;4991884;28;20045;-77
2022/09/03 02:18:29;;;;;;;6.57;1.30;;;14.60;99.90;;;13.40;78.73;101725.63;4980105;28;20038;-77
2022/09/03 02:20:58;;;;;;;7.68;1.48;;;14.60;99.90;;;13.36;78.62;101729.31;4997754;28;20054;-77
2022/09/03 02:23:24;;;;;;;3.28;1.40;;;14.60;99.90;;;13.31;78.47;101718.94;4997101;28;20060;-77
2022/09/03 02:26:02;;;;;;;7.30;1.58;;;14.50;99.90;;;13.22;78.64;101722.78;4982718;28;20129;-77
2022/09/03 02:28:30;;;;;;;9.95;1.40;;;14.40;99.90;;;13.15;79.07;101721.31;4981480;28;20029;-77
2022/09/03 02:30:57;;;;;;;5.07;1.42;;;14.40;99.90;;;13.16;78.88;101730.97;4999203;28;20034;-77
2022/09/03 02:33:23;;;;;;;7.53;1.50;;;14.30;99.90;;;13.07;79.70;101720.78;4982471;28;20041;-77
2022/09/03 02:35:49;;;;;;;3.60;1.55;;;14.20;99.90;;;13.05;80.08;101722.63;4991498;28;20045;-77
2022/09/03 02:38:24;;;;;;;4.60;1.52;;;14.20;99.90;;;12.96;80.57;101721.22;4996109;28;20030;-76
2022/09/03 02:40:53;;;;;;;8.10;1.95;;;14.10;99.90;;;12.89;81.20;101711.81;4995707;28;20030;-76
2022/09/03 02:43:39;;;;;;;5.07;1.98;;;14.10;99.90;;;12.83;81.33;101712.03;4993908;28;20061;-76
2022/09/03 02:46:14;;;;;;;6.68;1.83;;;14.00;99.90;;;12.75;82.47;101719.44;4997004;28;20388;-77
2022/09/03 02:48:40;;;;;;;9.53;1.63;;;13.90;99.90;;;12.68;83.16;101718.84;4996793;28;20109;-77
2022/09/03 02:51:06;;;;;;;6.50;1.90;;;13.90;99.90;;;12.56;84.41;101720.16;4993527;28;20498;-77
2022/09/03 02:53:32;;;;;;;6.00;1.88;;;13.80;99.90;;;12.56;84.91;101722.81;4998108;28;20694;-76
2022/09/03 02:56:02;;;;;;;5.45;1.67;;;13.80;99.90;;;12.48;86.24;101714.31;4997531;28;20376;-76
2022/09/03 02:58:30;;;;;;;4.22;1.55;;;13.70;99.90;;;12.43;86.67;101719.78;4998295;28;20418;-76
2022/09/03 03:00:56;;;;;;;4.18;1.67;;;13.60;99.90;;;12.44;86.85;101720.63;4993746;28;20033;-76
2022/09/03 03:03:22;;;;;;;4.65;1.50;;;13.60;99.90;;;12.34;87.49;101716.63;4996657;28;20060;-76
2022/09/03 03:05:51;;;;;;;7.88;1.70;;;13.50;99.90;;;12.28;87.79;101717.72;4980280;28;20030;-75
2022/09/03 03:08:24;;;;;;;8.25;1.75;;;13.40;99.90;;;12.22;88.41;101716.16;4982002;28;20034;-76
2022/09/03 03:10:58;;;;;;;4.38;1.65;;;13.40;99.90;;;12.18;89.12;101721.63;4998395;28;20584;-76
2022/09/03 03:13:29;;;;;;;7.35;1.88;;;13.40;99.90;;;12.13;89.90;101732.34;4994893;28;20037;-76
2022/09/03 03:16:00;;;;;;;8.10;1.40;;;13.30;99.90;;;12.06;90.41;101713.25;4980463;28;20668;-76
2022/09/03 03:18:27;;;;;;;7.25;1.50;;;13.30;99.90;;;12.04;90.89;101724.78;4998399;28;20073;-76
2022/09/03 03:20:53;;;;;;;5.55;1.65;;;13.20;99.90;;;11.98;91.92;101720.56;4978739;28;20026;-76
2022/09/03 03:23:19;;;;;;;6.35;1.55;;;13.20;99.90;;;11.96;92.75;101727.69;4998264;28;20019;-76
2022/09/03 03:25:45;;;;;;;5.63;1.52;;;13.20;99.90;;;11.98;92.65;101735.56;4994537;28;20037;-76
2022/09/03 03:28:14;;;;;;;4.63;1.40;;;13.10;99.90;;;11.94;93.26;101729.53;4998298;28;20046;-76
2022/09/03 03:30:41;;;;;;;3.38;1.70;;;13.10;99.90;;;11.90;93.39;101727.94;4997984;28;20038;-76
2022/09/03 03:33:11;;;;;;;3.85;1.40;;;13.10;99.90;;;11.85;94.22;101725.41;5001911;28;20568;-76
2022/09/03 03:35:36;;;;;;;4.20;1.60;;;13.00;99.90;;;11.78;95.55;101729.19;4997062;28;20089;-76
2022/09/03 03:38:08;;;;;;;6.15;1.60;;;13.00;99.90;;;11.75;95.55;101721.41;4999286;28;20450;-76
2022/09/03 03:40:34;;;;;;;4.57;1.73;;;12.90;99.90;;;11.68;96.68;101723.41;5002119;28;20026;-76
2022/09/03 03:42:59;;;;;;;5.50;1.50;;;12.90;99.90;;;11.72;96.27;101732.03;4984586;28;20034;-76
2022/09/03 03:45:25;;;;;;;8.75;1.48;;;12.90;99.90;;;11.73;96.30;101725.88;4983464;28;20038;-76
2022/09/03 03:47:51;;;;;;;4.55;1.58;;;12.90;99.90;;;11.69;95.90;101726.88;5013474;23;20065;-76
2022/09/03 03:50:17;;;;;;;7.47;1.50;;;12.90;99.90;;;11.62;95.81;101728.88;4990605;28;20064;-76
2022/09/03 03:52:50;;;;;;;6.38;2.00;;;12.80;99.90;;;11.60;96.49;101736.00;4992773;28;20038;-75
2022/09/03 03:55:16;;;;;;;3.15;1.45;;;12.80;99.90;;;11.53;96.77;101725.69;4992682;28;20043;-76
2022/09/03 03:57:42;;;;;;;5.35;1.70;;;12.80;99.90;;;11.53;96.37;101731.81;4983106;28;20055;-76
2022/09/03 04:00:08;;;;;;;5.35;2.00;;;12.80;99.90;;;11.53;95.85;101731.81;4982361;28;20027;-77
2022/09/03 04:02:36;;;;;;;5.45;1.98;;;12.80;99.90;;;11.53;94.85;101729.19;4981600;28;20026;-77
2022/09/03 04:05:05;;;;;;;7.07;1.73;;;12.80;99.90;;;11.60;94.88;101737.78;4982038;28;20045;-77
2022/09/03 04:07:33;;;;;;;4.25;1.75;;;12.80;99.90;;;11.60;93.47;101733.34;5046941;22;20041;-77
2022/09/03 04:09:59;;;;;;;3.38;1.48;;;12.80;99.90;;;11.60;93.18;101740.41;5041041;28;20450;-76
2022/09/03 04:12:26;;;;;;;5.85;1.70;;;12.80;99.90;;;11.63;92.48;101740.28;5044050;28;20021;-77
2022/09/03 04:14:52;;;;;;;7.10;1.98;;;12.80;99.90;;;11.61;92.43;101719.22;5041907;28;20032;-77
2022/09/03 04:17:18;;;;;;;6.43;1.77;;;12.80;99.90;;;11.62;91.79;101731.53;5041132;28;20032;-76
2022/09/03 04:19:46;;;;;;;6.80;2.00;;;12.80;99.90;;;11.65;91.59;101725.25;5032373;28;20456;-77
2022/09/03 04:22:15;;;;;;;2.50;1.40;;;12.80;99.90;;;11.64;91.80;101724.41;5040422;28;20053;-76
2022/09/03 04:24:41;;;;;;;6.47;1.90;;;12.80;99.90;;;11.65;91.23;101734.03;5037347;28;20404;-77
2022/09/03 04:27:09;;;;;;;4.55;1.40;;;12.80;99.90;;;11.67;91.13;101734.00;5023668;28;20025;-76
2022/09/03 04:29:35;;;;;;;6.15;1.67;;;12.80;99.90;;;11.70;90.64;101732.13;5041718;28;20028;-76
2022/09/03 04:34:45;;;;;;;3.15;1.33;;;12.90;99.90;;;11.75;90.54;101750.41;5040871;28;20091;-76
2022/09/03 04:37:11;;;;;;;5.35;1.88;;;12.90;99.90;;;11.78;90.02;101738.88;5038735;28;20029;-76
2022/09/03 04:39:37;;;;;;;3.95;1.50;;;12.90;99.90;;;11.86;89.78;101737.69;5040547;28;20025;-76
2022/09/03 04:42:03;;;;;;;4.70;1.27;;;13.00;99.90;;;11.87;89.37;101742.03;5039729;28;20021;-76
2022/09/03 04:44:29;;;;;;;7.97;1.63;;;13.00;99.90;;;11.85;89.39;101740.38;5039295;28;20025;-77
2022/09/03 04:46:55;;;;;;;4.85;1.65;;;13.00;99.90;;;11.87;89.11;101735.91;5036635;28;20155;-76
2022/09/03 04:49:21;;;;;;;4.20;1.50;;;13.00;99.90;;;11.89;89.03;101739.41;5038837;28;20040;-77
2022/09/03 04:51:47;;;;;;;5.25;1.33;;;13.00;99.90;;;11.93;89.63;101738.38;5038721;28;20047;-76
2022/09/03 04:54:12;;;;;;;4.65;1.80;;;13.00;99.90;;;11.95;89.75;101744.47;5041860;28;20029;-77
2022/09/03 04:56:39;;;;;;;3.72;1.73;;;13.10;99.90;;;11.99;88.77;101748.72;5039206;28;20072;-77
2022/09/03 04:59:08;;;;;;;6.05;1.40;;;13.10;99.90;;;11.96;89.28;101748.81;5040079;28;20033;-76
2022/09/03 05:01:37;;;;;;;3.50;1.85;;;13.20;99.90;;;12.07;89.16;101751.94;5022417;28;20033;-77
2022/09/03 05:04:04;;;;;;;10.82;1.90;;;13.20;99.90;;;12.18;89.20;101759.47;5045730;28;20043;-76
2022/09/03 05:06:47;;;;;;;9.52;1.95;;;13.20;99.90;;;12.19;88.14;101761.19;5032650;22;20116;-77
2022/09/03 05:09:13;;;;;;;6.00;1.92;;;13.30;99.90;;;12.37;87.86;101759.63;5007587;28;20030;-77
2022/09/03 05:11:39;;;;;;;8.43;2.13;;;13.40;99.90;;;12.53;87.19;101767.84;5011294;28;20025;-76
2022/09/03 05:14:05;;;;;;;7.18;2.17;;;13.40;99.90;;;12.49;86.90;101759.16;5004554;28;20038;-77
2022/09/03 05:16:31;;;;;;;4.55;1.92;;;13.40;99.90;;;12.50;87.07;101767.94;5008347;28;20083;-77
2022/09/03 05:18:59;;;;;;;4.82;1.63;;;13.50;99.90;;;13.27;86.29;101773.69;5015800;28;20042;-76
2022/09/03 05:21:27;;;;;;;5.05;2.25;;;14.60;99.90;;;18.37;68.82;101785.56;4990153;28;20423;-77
2022/09/03 05:23:53;;;;;;;9.15;2.00;;;16.20;99.90;;;21.73;56.85;101771.16;4993031;28;20026;-77
2022/09/03 05:26:26;;;;;;;5.75;2.15;;;17.60;99.90;;;22.24;53.55;101766.25;4974801;28;20777;-77
2022/09/03 05:28:55;;;;;;;7.03;1.92;;;19.00;99.90;;;24.71;48.77;101773.25;4983131;28;20042;-77
2022/09/03 05:31:26;;;;;;;5.47;1.90;;;20.10;99.90;;;25.17;47.18;101760.94;4973191;28;20085;-76
2022/09/03 05:33:59;;;;;;;5.00;2.25;;;21.00;99.90;;;26.56;44.48;101773.00;4992031;28;20491;-77
2022/09/03 05:36:31;;;;;;;5.65;2.20;;;21.80;99.90;;;27.26;43.02;101785.88;4991653;28;20453;-77
2022/09/03 05:38:58;;;;;;;6.57;1.83;;;22.00;99.90;;;24.08;46.91;101766.19;4991920;28;20039;-77
2022/09/03 05:41:25;;;;;;;5.43;2.05;;;21.50;99.90;;;21.40;51.88;101754.00;4974452;28;20038;-77
2022/09/03 05:43:57;;;;;;;4.15;1.80;;;20.70;99.90;;;20.12;55.25;101765.13;4991418;28;20026;-77
2022/09/03 05:46:30;;;;;;;9.63;2.00;;;19.60;99.90;;;18.24;60.24;101775.66;5018287;22;20060;-77
2022/09/03 05:49:06;;;;;;;6.10;1.63;;;18.70;99.90;;;17.05;64.27;101773.00;5025560;28;20025;-77
2022/09/03 05:51:34;;;;;;;7.35;1.80;;;18.00;99.90;;;17.15;65.53;101778.66;5021419;28;20025;-77
2022/09/03 05:54:02;;;;;;;6.50;1.83;;;18.20;99.90;;;22.02;55.13;101785.84;5026757;28;20029;-77
2022/09/03 05:56:30;;;;;;;4.38;1.80;;;19.10;99.90;;;23.37;49.59;101771.38;5015019;28;20030;-76
2022/09/03 05:59:04;;;;;;;3.13;1.67;;;19.60;99.90;;;21.30;52.61;101759.22;4992720;28;20026;-77
2022/09/03 06:01:38;;;;;;;3.90;1.50;;;19.60;99.90;;;20.00;56.15;101764.16;5008244;28;20029;-77
2022/09/03 06:04:11;;;;;;;2.00;1.35;;;19.20;99.90;;;19.12;58.37;101761.22;5016409;28;20017;-76
2022/09/03 06:06:40;;;;;;;5.55;1.50;;;18.70;99.90;;;18.61;60.04;101760.00;5008428;28;20116;-77
2022/09/03 06:09:09;;;;;;;4.88;1.48;;;18.60;99.90;;;19.10;58.70;101771.16;5009093;28;20061;-78
2022/09/03 06:11:37;;;;;;;5.63;1.48;;;18.60;99.90;;;19.62;57.08;101775.66;4992830;28;20060;-77
2022/09/03 06:14:07;;;;;;;2.72;0.90;;;18.60;99.90;;;19.27;57.95;101773.56;5008110;28;20438;-77
2022/09/03 06:16:37;;;;;;;4.97;1.35;;;18.50;99.90;;;19.18;58.38;101774.16;5008116;28;20088;-78
2022/09/03 06:19:09;;;;;;;3.20;1.30;;;18.40;99.90;;;18.21;59.90;101757.19;5010488;28;20364;-76
2022/09/03 06:21:41;;;;;;;3.42;1.25;;;18.10;99.90;;;17.03;63.50;101766.91;5016212;28;20434;-77
2022/09/03 06:24:19;;;;;;;3.42;1.70;;;17.80;99.90;;;16.46;65.94;101774.50;4993103;28;20041;-79
2022/09/03 06:26:45;;;;;;;3.92;1.00;;;17.60;99.90;;;17.32;63.98;101783.84;5008171;28;20064;-76
2022/09/03 06:29:12;;;;;;;7.72;1.10;;;17.50;99.90;;;17.11;63.98;101783.28;5008602;28;20513;-77
2022/09/03 06:31:38;;;;;;;4.03;1.10;;;17.50;99.90;;;17.70;62.88;101788.72;5008620;28;20030;-77
2022/09/03 06:34:04;;;;;;;3.25;1.17;;;17.70;99.90;;;18.81;60.61;101797.91;4988341;28;20384;-78
2022/09/03 06:36:31;;;;;;;6.63;1.20;;;18.10;99.90;;;19.53;58.72;101800.34;5006123;28;20406;-76
2022/09/03 06:38:57;;;;;;;2.83;1.10;;;18.70;99.90;;;20.56;55.76;101811.91;5008126;28;20398;-77
2022/09/03 06:41:28;;;;;;;1.98;1.23;;;19.30;99.90;;;20.35;55.58;101800.94;5009591;28;20027;-77
2022/09/03 06:44:10;;;;;;;3.40;1.08;;;19.30;99.90;;;18.92;58.23;101795.44;5005156;28;20509;-77
2022/09/03 06:46:38;;;;;;;2.78;1.25;;;19.00;99.90;;;18.87;59.67;101797.53;5006592;28;20034;-77
2022/09/03 06:49:04;;;;;;;4.45;1.02;;;19.20;99.90;;;20.43;56.75;101814.59;5016504;28;20026;-77
2022/09/03 06:51:32;;;;;;;1.90;1.00;;;19.90;99.90;;;22.23;52.67;101812.84;5007786;28;20030;-76
2022/09/03 06:54:06;;;;;;;3.15;1.15;;;21.10;99.90;;;24.57;47.81;101809.47;4991100;28;20042;-77
2022/09/03 06:56:34;;;;;;;3.42;1.27;;;22.60;99.90;;;25.95;44.43;101813.00;5007709;28;20041;-77
2022/09/03 06:59:06;;;;;;;2.15;0.90;;;23.80;98.20;;;26.51;43.39;101808.53;5008378;28;20022;-77
2022/09/03 07:01:33;;;;;;;5.10;0.95;;;24.60;95.90;;;26.38;43.38;101808.03;5007385;28;20113;-77
2022/09/03 07:04:04;;;;;;;6.03;1.00;;;25.30;96.00;;;27.22;41.69;101817.81;5007927;28;20030;-77
2022/09/03 07:06:41;;;;;;;1.75;1.00;;;26.00;93.70;;;27.78;40.47;101818.44;5006890;28;20034;-77
2022/09/03 07:09:09;;;;;;;1.85;1.30;;;26.30;93.50;;;27.63;41.25;101826.28;5008226;28;20029;-76
2022/09/03 07:11:36;;;;;;;2.47;1.15;;;26.70;92.50;;;27.64;41.07;101827.13;4991497;28;20032;-75
2022/09/03 07:14:07;;;;;;;3.17;1.00;;;26.60;91.00;;;26.63;41.73;101822.72;5007323;28;20409;-76
2022/09/03 07:16:36;;;;;;;2.17;0.90;;;26.80;92.20;;;27.57;41.18;101835.88;5007934;28;20134;-76
2022/09/03 07:19:07;;;;;;;3.10;1.10;;;27.20;91.40;;;27.59;40.45;101831.16;5007527;28;20034;-75
2022/09/03 07:21:35;;;;;;;2.42;1.05;;;27.50;91.10;;;28.18;40.12;101844.94;5006836;28;20036;-78
2022/09/03 07:24:03;;;;;;;4.97;1.08;;;27.80;91.00;;;28.19;39.80;101843.13;4991608;28;20084;-74
2022/09/03 07:26:32;;;;;;;2.58;1.02;;;28.10;89.80;;;28.56;39.34;101845.53;5005152;28;20084;-78
2022/09/03 07:29:02;;;;;;;4.97;0.93;;;28.80;90.20;;;29.55;38.75;101849.34;5007901;28;20386;-75
2022/09/03 07:31:35;;;;;;;2.13;1.05;;;28.80;88.80;;;29.19;38.98;101848.78;4991405;28;20401;-81
2022/09/03 07:34:11;;;;;;;3.03;0.90;;;29.20;88.70;;;28.92;39.01;101844.44;5007766;28;20449;-75
2022/09/03 07:36:42;;;;;;;1.75;0.93;;;29.00;87.10;;;28.55;39.75;101846.56;5006843;28;20042;-75
2022/09/03 07:39:13;;;;;;;2.45;1.08;;;28.90;88.20;;;28.73;39.93;101851.03;5004560;28;20064;-75
2022/09/03 07:41:42;;;;;;;3.95;0.93;;;28.60;88.30;;;27.93;40.63;101857.50;5029112;22;20191;-78
2022/09/03 07:44:08;;;;;;;2.55;0.90;;;29.10;88.50;;;28.85;39.46;101855.09;5016377;28;20025;-76
2022/09/03 07:46:36;;;;;;;8.95;1.33;;;29.20;85.30;;;28.61;39.68;101859.41;5016523;28;20041;-75
2022/09/03 07:49:05;;;;;;;1.73;1.10;;;29.70;85.40;;;29.04;38.93;101859.41;5011609;28;20450;-75
2022/09/03 07:51:35;;;;;;;2.65;0.88;;;29.70;83.10;;;28.78;38.67;101865.75;5018288;28;20116;-76
2022/09/03 07:54:06;;;;;;;3.70;1.23;;;29.70;83.80;;;28.83;38.09;101858.00;5013116;28;20034;-75
2022/09/03 07:56:34;;;;;;;6.10;1.25;;;29.70;83.90;;;28.45;39.05;101863.91;5016987;28;20046;-76
2022/09/03 07:59:01;;;;;;;2.55;0.90;;;29.70;83.80;;;28.63;38.72;101870.09;5015371;28;20022;-76
2022/09/03 08:01:30;;;;;;;2.28;0.80;;;29.40;82.10;;;27.95;39.18;101869.03;5015796;28;20030;-75
2022/09/03 08:03:56;;;;;;;6.88;1.00;;;29.30;83.90;;;28.12;39.37;101871.81;5000934;28;20025;-76
2022/09/03 08:06:26;;;;;;;3.63;0.82;;;29.30;84.00;;;28.28;39.09;101869.22;5036116;28;20021;-76
2022/09/03 08:09:03;;;;;;;1.52;0.80;;;29.70;85.40;;;29.08;38.27;101871.63;5017214;28;20033;-76
2022/09/03 08:11:30;;;;;;;0.77;0.68;;;29.80;83.00;;;28.38;38.04;101864.56;5013249;28;20049;-76
2022/09/03 08:14:02;;;;;;;5.25;0.80;;;29.20;83.00;;;27.70;39.29;101867.09;5013968;28;20490;-75
2022/09/03 08:16:30;;;;;;;3.20;0.98;;;29.20;85.40;;;27.97;39.51;101863.41;5013908;28;20038;-75
2022/09/03 08:18:56;;;;;;;1.48;0.82;;;28.90;83.90;;;27.28;41.00;101865.00;5019046;28;20014;-75
2022/09/03 08:21:24;;;;;;;2.50;0.70;;;29.00;85.00;;;27.97;39.44;101864.28;5020639;28;20060;-75
2022/09/03 08:23:53;;;;;;;3.80;0.88;;;29.30;84.00;;;28.58;38.99;101873.31;5023303;28;20057;-77
2022/09/03 08:26:21;;;;;;;2.97;0.93;;;28.50;82.50;;;26.59;41.00;101859.13;5019441;28;20180;-75
2022/09/03 08:28:48;;;;;;;4.25;0.82;;;28.60;84.20;;;26.91;40.12;101855.97;5020080;28;20037;-75
2022/09/03 08:31:18;;;;;;;7.03;1.02;;;28.50;85.10;;;27.61;39.96;101860.75;5021165;28;20580;-75
2022/09/03 08:33:47;;;;;;;3.60;0.82;;;28.80;85.50;;;28.08;40.03;101868.59;5000273;28;20040;-75
2022/09/03 08:36:24;;;;;;;1.27;0.73;;;28.30;84.90;;;27.19;40.66;101862.19;5026463;28;20114;-76
2022/09/03 08:38:54;;;;;;;4.28;0.90;;;28.40;85.00;;;27.32;40.52;101861.84;5018796;28;20390;-75
2022/09/03 08:41:29;;;;;;;6.28;1.15;;;28.20;84.40;;;26.96;41.15;101855.53;5014962;28;20037;-75
2022/09/03 08:44:47;;;;;;;1.40;0.77;;;28.20;87.00;;;27.23;40.08;101856.50;5017647;28;20021;-76
2022/09/03 08:47:34;;;;;;;2.75;0.73;;;27.30;86.40;;;25.37;43.03;101840.84;5014505;28;20398;-76
2022/09/03 08:50:28;;;;;;;3.03;0.77;;;26.70;89.20;;;25.34;44.69;101842.97;5018460;28;20032;-76
2022/09/03 08:53:16;;;;;;;4.50;0.80;;;26.40;89.20;;;24.54;44.61;101834.84;5018304;28;20034;-76
2022/09/03 08:55:49;;;;;;;4.00;1.10;;;25.70;89.10;;;24.23;45.77;101847.41;5016412;28;20506;-76
2022/09/03 08:58:21;;;;;;;5.05;1.10;;;24.90;90.30;;;23.21;47.11;101835.44;5018876;28;20025;-75
2022/09/03 09:01:22;;;;;;;3.15;0.77;;;24.40;91.80;;;23.40;47.32;101837.47;5026161;28;20032;-75
2022/09/03 09:04:35;;;;;;;4.22;0.90;;;24.20;92.00;;;23.45;47.57;101838.75;5018310;28;20017;-75
2022/09/03 09:07:29;;;;;;;2.15;0.95;;;23.50;91.90;;;22.35;48.53;101826.25;5022914;28;20033;-75
2022/09/03 09:10:25;;;;;;;2.28;0.70;;;23.20;93.10;;;22.05;49.72;101824.97;5021855;28;20609;-76
2022/09/03 09:13:16;;;;;;;2.70;0.98;;;23.10;93.80;;;22.13;50.12;101827.91;5021745;28;20026;-76
2022/09/03 09:16:13;;;;;;;3.20;0.80;;;22.80;93.80;;;21.76;50.77;101820.03;5018827;28;20088;-75
2022/09/03 09:18:51;;;;;;;2.20;1.08;;;22.80;94.60;;;21.57;50.78;101820.56;5022178;28;20021;-76
2022/09/03 09:21:34;;;;;;;2.25;0.80;;;22.70;93.60;;;21.65;50.60;101815.50;5020304;28;20044;-75
2022/09/03 09:24:12;;;;;;;4.65;0.70;;;22.70;94.20;;;21.80;50.55;101815.31;5019603;28;20085;-78
2022/09/03 09:26:40;;;;;;;5.00;0.77;;;22.70;93.20;;;21.69;50.18;101808.09;5018070;28;20069;-76
2022/09/03 09:29:12;;;;;;;5.50;0.90;;;22.50;93.70;;;21.33;50.66;101796.47;5019364;28;20097;-77
2022/09/03 09:31:39;;;;;;;4.45;0.82;;;22.30;94.20;;;21.22;51.64;101796.44;5020351;28;20037;-75
2022/09/03 09:34:12;;;;;;;5.90;0.70;;;22.40;93.70;;;21.61;50.01;101792.59;4997488;28;20041;-76
2022/09/03 09:37:00;;;;;;;2.58;0.70;;;22.40;93.40;;;21.44;49.97;101791.19;5013625;28;21275;-75
2022/09/03 09:39:26;;;;;;;2.80;0.80;;;22.40;93.40;;;21.46;50.35;101775.84;5020699;28;20022;-76
2022/09/03 09:42:10;;;;;;;2.42;0.70;;;22.40;94.00;;;21.43;50.29;101769.88;5021904;28;20044;-76
2022/09/03 09:44:42;;;;;;;2.15;0.63;;;22.40;92.50;;;21.35;49.40;101772.25;5014039;28;20108;-76
2022/09/03 09:47:19;;;;;;;3.80;0.70;;;22.40;94.10;;;21.58;49.22;101775.91;5023707;28;20049;-76
2022/09/03 09:49:45;;;;;;;4.80;0.70;;;22.50;93.00;;;21.67;48.69;101780.53;5020361;28;20034;-76
2022/09/03 09:52:15;;;;;;;1.90;0.70;;;22.40;92.30;;;21.33;48.57;101771.50;5018928;28;20041;-76
2022/09/03 09:54:46;;;;;;;3.45;0.95;;;22.40;92.50;;;21.35;49.02;101775.78;5015748;28;20037;-77
2022/09/03 09:57:25;;;;;;;7.22;0.68;;;22.30;93.10;;;21.30;49.55;101772.59;5012751;28;20049;-76
2022/09/03 10:00:16;;;;;;;1.33;0.57;;;22.30;92.90;;;21.18;48.75;101765.47;5000620;28;20034;-76
2022/09/03 10:02:53;;;;;;;2.53;0.50;;;22.30;92.90;;;21.22;48.71;101764.28;4998773;28;20072;-76
2022/09/03 10:05:36;;;;;;;3.80;0.77;;;22.30;92.50;;;21.34;47.71;101754.44;5016256;28;20066;-76
2022/09/03 10:08:07;;;;;;;1.83;0.50;;;22.40;92.80;;;21.63;49.08;101768.34;5002144;28;20073;-77
2022/09/03 10:10:47;;;;;;;6.95;0.80;;;22.40;93.00;;;21.22;49.08;101757.09;4999192;28;20564;-76
2022/09/03 10:13:42;;;;;;;4.85;0.60;;;22.30;92.50;;;21.39;48.60;101752.31;5023543;28;20573;-76
2022/09/03 10:16:38;;;;;;;2.80;0.60;;;22.30;91.90;;;21.23;47.96;101753.47;5020635;28;20076;-76
2022/09/03 10:19:23;;;;;;;6.03;0.60;;;22.20;92.80;;;21.22;49.49;101751.75;5015841;28;20036;-77
2022/09/03 10:22:18;;;;;;;2.95;0.60;;;22.40;92.70;;;21.60;47.92;101755.19;5007128;28;20084;-76
2022/09/03 10:24:59;;;;;;;2.28;0.52;;;22.20;92.40;;;21.29;49.04;101749.44;5016946;28;20037;-75
2022/09/03 10:27:28;;;;;;;2.45;0.63;;;22.30;92.80;;;21.17;48.46;101737.00;5021421;28;20453;-76
2022/09/03 10:29:54;;;;;;;5.45;0.85;;;22.30;92.30;;;21.43;48.16;101745.78;5002504;28;20053;-76
2022/09/03 10:33:01;;;;;;;3.83;0.50;;;22.40;92.50;;;21.31;47.38;101734.97;5015885;28;20469;-76
2022/09/03 10:35:36;;;;;;;2.80;0.95;;;22.10;92.30;;;21.29;48.41;101730.69;5033122;28;20033;-78
2022/09/03 10:38:14;;;;;;;1.67;0.57;;;22.20;91.30;;;21.37;47.63;101730.13;5024996;28;20034;-76
2022/09/03 10:41:18;;;;;;;3.25;0.68;;;22.40;90.60;;;21.59;46.62;101727.53;5014482;28;20545;-76
2022/09/03 10:44:12;;;;;;;5.57;0.63;;;22.40;91.30;;;21.39;46.76;101726.34;5004587;28;20475;-76
2022/09/03 10:47:33;;;;;;;4.25;0.63;;;22.50;91.70;;;21.73;46.38;101734.50;5014624;28;20030;-76
2022/09/03 10:50:22;;;;;;;2.45;0.50;;;22.50;90.80;;;21.64;46.68;101735.19;5018357;28;20072;-76
2022/09/03 10:53:11;;;;;;;2.70;0.60;;;22.60;91.80;;;22.01;46.30;101724.28;5020449;28;20021;-76
2022/09/03 10:56:16;;;;;;;2.35;0.38;;;22.70;91.10;;;22.06;45.31;101717.56;5020418;28;20035;-77
2022/09/03 10:59:12;;;;;;;2.65;0.50;;;22.80;91.10;;;21.91;45.34;101713.44;5014961;28;20026;-76